Time;durP1;ratioP1;P1;durP2;ratioP2;P2;SDS_P1;SDS_P2;PMS_P1;PMS_P2;Temp;Humidity;BMP_temperature;BMP_pressure;BME280_temperature;BME280_humidity;BME280_pressure;Samples;Min_cycle;Max_cycle;Signal;HPM_P1;HPM_P2
2022/09/19 00:01:58;;;;;;;1.90;1.10;;;;;;;15.89;43.26;99641.28;5112581;28;20027;-37
2022/09/19 00:04:28;;;;;;;5.05;1.27;;;;;;;15.80;42.24;99653.47;5113870;28;20027;-37
2022/09/19 00:06:55;;;;;;;1.20;1.10;;;;;;;15.95;44.10;99648.38;5113930;28;20015;-37
2022/09/19 00:09:25;;;;;;;2.45;1.15;;;;;;;15.99;43.35;99644.19;5113822;28;20110;-37
2022/09/19 00:11:53;;;;;;;2.60;1.10;;;;;;;15.81;42.32;99647.84;5114002;28;20375;-37
2022/09/19 00:14:21;;;;;;;2.60;1.10;;;;;;;15.47;42.46;99649.59;5113776;28;20552;-37
2022/09/19 00:16:47;;;;;;;2.73;1.20;;;;;;;15.53;43.82;99645.94;5113479;28;20027;-37
2022/09/19 00:19:16;;;;;;;1.17;1.00;;;;;;;15.65;41.92;99640.56;5113536;28;20015;-37
2022/09/19 00:21:44;;;;;;;1.33;1.00;;;;;;;15.99;41.27;99654.06;5113421;28;20459;-37
2022/09/19 00:26:56;;;;;;;1.35;1.00;;;;;;;16.09;40.80;99640.00;5113604;28;20081;-37
2022/09/19 00:29:23;;;;;;;1.27;1.17;;;;;;;15.99;41.76;99646.84;5112951;28;20015;-37
2022/09/19 00:31:49;;;;;;;1.65;1.10;;;;;;;16.07;41.43;99644.81;5113271;28;20104;-37
2022/09/19 00:34:17;;;;;;;1.58;1.20;;;;;;;15.91;42.07;99657.16;5113614;27;20141;-37
2022/09/19 00:36:43;;;;;;;1.10;1.00;;;;;;;15.85;41.41;99652.75;5113296;28;20034;-37
2022/09/19 00:39:11;;;;;;;4.20;1.20;;;;;;;15.56;42.63;99656.22;5113196;28;20020;-37
2022/09/19 00:41:37;;;;;;;2.40;1.00;;;;;;;15.78;42.48;99651.03;5112388;28;20397;-37
2022/09/19 00:44:21;;;;;;;1.48;1.20;;;;;;;16.08;41.01;99649.13;5112091;28;20107;-37
2022/09/19 00:46:48;;;;;;;2.83;1.15;;;;;;;16.06;40.80;99643.19;5112649;28;20019;-37
2022/09/19 00:49:14;;;;;;;1.38;1.20;;;;;;;16.23;39.84;99644.84;5112916;28;20020;-37
2022/09/19 00:51:46;;;;;;;2.92;1.23;;;;;;;16.40;40.55;99644.03;5112706;28;20409;-37
2022/09/19 00:54:20;;;;;;;2.25;0.98;;;;;;;16.45;40.18;99635.22;5112649;28;20055;-37
2022/09/19 00:56:50;;;;;;;1.77;1.20;;;;;;;16.37;40.27;99642.66;5112849;28;20024;-37
2022/09/19 00:59:16;;;;;;;;;;;;;;;16.75;39.28;99635.72;5113319;28;20484;-37
2022/09/19 01:01:42;;;;;;;2.95;1.10;;;;;;;16.35;40.43;99642.06;5112617;27;20058;-37
2022/09/19 01:04:16;;;;;;;2.35;1.17;;;;;;;15.97;42.22;99640.09;5111611;28;20643;-37
2022/09/19 01:07:20;;;;;;;4.50;1.10;;;;;;;16.10;41.79;99633.59;5111182;28;20547;-37
2022/09/19 01:09:48;;;;;;;1.98;1.42;;;;;;;15.92;41.24;99629.28;5112579;28;20173;-37
2022/09/19 01:12:27;;;;;;;1.60;1.10;;;;;;;16.33;43.28;99627.28;5112607;28;20031;-37
2022/09/19 01:14:59;;;;;;;1.17;1.00;;;;;;;15.98;40.30;99628.31;5111915;28;20106;-37
2022/09/19 01:17:34;;;;;;;1.10;1.00;;;;;;;15.98;41.26;99636.34;5112650;28;20047;-37
2022/09/19 01:19:59;;;;;;;1.80;1.10;;;;;;;15.76;41.42;99634.38;5112909;28;20035;-37
2022/09/19 01:23:02;;;;;;;1.27;1.10;;;;;;;15.99;41.99;99632.59;5112847;28;20027;-37
2022/09/19 01:25:45;;;;;;;1.35;1.10;;;;;;;16.40;39.94;99628.72;5112485;28;20096;-37
2022/09/19 01:28:24;;;;;;;4.38;1.20;;;;;;;16.18;40.68;99634.03;5112830;28;20035;-37
2022/09/19 01:33:50;;;;;;;1.58;1.20;;;;;;;16.20;40.95;99633.75;5112769;28;20414;-37
2022/09/19 01:36:19;;;;;;;2.90;1.20;;;;;;;16.21;41.68;99638.09;5112828;28;20028;-37
2022/09/19 01:38:46;;;;;;;1.38;1.27;;;;;;;16.01;42.58;99634.00;5112832;28;20043;-37
2022/09/19 01:41:13;;;;;;;1.67;1.30;;;;;;;15.89;43.09;99633.25;5112604;28;20419;-37
2022/09/19 01:43:38;;;;;;;1.63;1.25;;;;;;;15.96;42.02;99638.47;5112626;28;20488;-37
2022/09/19 01:46:13;;;;;;;1.75;1.20;;;;;;;16.03;42.45;99636.47;5112052;28;20092;-38
2022/09/19 01:49:06;;;;;;;2.38;1.27;;;;;;;15.93;42.63;99636.25;5112499;28;20023;-37
2022/09/19 01:51:45;;;;;;;1.60;1.23;;;;;;;15.89;43.21;99637.81;5112453;28;20087;-37
2022/09/19 01:54:14;;;;;;;1.75;1.33;;;;;;;16.02;41.66;99637.50;5112358;28;20023;-36
2022/09/19 01:56:59;;;;;;;1.20;1.10;;;;;;;16.39;42.94;99642.41;5112089;28;20020;-37
2022/09/19 01:59:50;;;;;;;3.55;1.58;;;;;;;16.30;43.07;99638.50;5112222;28;20024;-37
2022/09/19 02:02:38;;;;;;;2.08;1.40;;;;;;;16.39;42.15;99627.13;5111664;28;20510;-39
2022/09/19 02:05:24;;;;;;;3.33;1.52;;;;;;;16.39;42.84;99629.81;5111761;28;20047;-38
2022/09/19 02:08:02;;;;;;;2.70;1.40;;;;;;;16.43;43.03;99630.13;5111831;28;20033;-37
2022/09/19 02:10:39;;;;;;;2.63;1.45;;;;;;;16.17;42.27;99640.44;5112128;28;20126;-37
2022/09/19 02:13:08;;;;;;;2.05;1.30;;;;;;;16.15;43.19;99636.38;5111986;28;20023;-37
2022/09/19 02:15:35;;;;;;;1.70;1.45;;;;;;;16.16;43.08;99638.84;5111604;28;20416;-37
2022/09/19 02:18:12;;;;;;;1.75;1.30;;;;;;;15.98;42.95;99639.84;5111118;28;20056;-37
2022/09/19 02:20:41;;;;;;;2.03;1.42;;;;;;;15.88;45.54;99631.63;5111677;28;20032;-37
2022/09/19 02:23:12;;;;;;;2.33;1.60;;;;;;;15.88;44.14;99642.34;5111605;28;20084;-38
2022/09/19 02:25:39;;;;;;;3.35;1.65;;;;;;;15.86;43.90;99632.91;5111483;28;20043;-37
2022/09/19 02:28:18;;;;;;;4.32;1.58;;;;;;;15.79;43.33;99643.78;5111526;28;20028;-37
2022/09/19 02:30:44;;;;;;;3.63;1.60;;;;;;;15.73;43.85;99650.09;5111188;28;20027;-37
2022/09/19 02:33:11;;;;;;;4.35;1.27;;;;;;;15.81;43.77;99641.69;5110651;28;20035;-38
2022/09/19 02:35:50;;;;;;;2.35;1.42;;;;;;;15.71;43.97;99642.28;5110829;28;20371;-37
2022/09/19 02:38:22;;;;;;;2.60;1.55;;;;;;;15.66;43.65;99644.06;5110641;28;20525;-37
2022/09/19 02:40:51;;;;;;;3.40;1.45;;;;;;;15.61;44.18;99650.94;5110555;28;20067;-37
2022/09/19 02:43:46;;;;;;;2.13;1.60;;;;;;;15.60;43.63;99643.94;5110514;28;20023;-37
2022/09/19 02:46:35;;;;;;;2.10;1.50;;;;;;;15.49;44.81;99657.41;5102961;28;20523;-37
2022/09/19 02:49:36;;;;;;;3.47;1.48;;;;;;;15.34;44.53;99656.03;5110043;28;20039;-37
2022/09/19 02:52:08;;;;;;;1.85;1.40;;;;;;;15.18;43.86;99646.06;5104380;28;20047;-46
2022/09/19 02:54:37;;;;;;;2.80;1.40;;;;;;;15.15;44.26;99657.22;5090191;28;20110;-44
2022/09/19 02:57:09;;;;;;;1.90;1.30;;;;;;;15.28;42.81;99656.16;5106174;28;20030;-43
2022/09/19 02:59:38;;;;;;;4.00;1.55;;;;;;;15.03;43.58;99644.66;5106748;27;20011;-42
2022/09/19 03:02:11;;;;;;;4.80;1.98;;;;;;;15.19;44.55;99661.06;5100229;28;20523;-45
2022/09/19 03:04:41;;;;;;;8.55;2.30;;;;;;;15.28;48.24;99658.84;5095802;28;20028;-45
2022/09/19 03:07:15;;;;;;;15.32;9.73;;;;;;;15.29;43.89;99655.09;5096876;28;20463;-43
2022/09/19 03:09:52;;;;;;;50.25;29.63;;;;;;;15.32;43.45;99649.28;5101262;28;20023;-42
2022/09/19 03:12:25;;;;;;;65.30;39.65;;;;;;;15.28;43.84;99656.16;5109366;28;20026;-43
2022/09/19 03:14:55;;;;;;;90.55;49.33;;;;;;;15.40;44.07;99657.78;5107196;28;20369;-42
2022/09/19 03:17:30;;;;;;;14.00;8.77;;;;;;;15.24;43.53;99659.31;5107705;28;20176;-46
2022/09/19 03:19:57;;;;;;;3.33;2.42;;;;;;;14.92;43.08;99655.41;5107751;28;20024;-44
2022/09/19 03:22:25;;;;;;;3.95;1.90;;;;;;;14.48;46.01;99661.06;5109178;28;20039;-46
2022/09/19 03:24:51;;;;;;;3.00;1.58;;;;;;;14.72;44.93;99653.91;5106903;28;20479;-44
2022/09/19 03:27:16;;;;;;;2.78;1.30;;;;;;;14.91;44.10;99648.41;5109079;28;20088;-44
2022/09/19 03:29:42;;;;;;;2.00;1.60;;;;;;;14.96;43.18;99651.19;5109717;28;20022;-43
2022/09/19 03:32:08;;;;;;;2.30;1.45;;;;;;;14.81;43.76;99647.16;5109601;28;20027;-44
2022/09/19 03:34:33;;;;;;;2.42;1.75;;;;;;;14.87;43.62;99650.75;5109809;28;20094;-44
2022/09/19 03:36:59;;;;;;;5.93;1.90;;;;;;;14.81;44.09;99641.78;5109996;28;20110;-43
2022/09/19 03:39:25;;;;;;;5.20;2.00;;;;;;;14.70;44.45;99647.97;5109534;28;20024;-43
2022/09/19 03:41:51;;;;;;;5.28;1.95;;;;;;;14.73;44.06;99646.66;5109981;28;20019;-43
2022/09/19 03:44:19;;;;;;;16.67;8.85;;;;;;;14.69;44.58;99645.50;5109088;28;20032;-42
2022/09/19 03:46:46;;;;;;;22.20;10.90;;;;;;;14.57;45.23;99651.66;5109171;28;20024;-45
2022/09/19 03:49:12;;;;;;;9.70;4.38;;;;;;;14.62;44.93;99645.59;5109358;28;20031;-45
2022/09/19 03:51:37;;;;;;;5.55;2.00;;;;;;;14.62;44.15;99645.59;5109492;28;20453;-43
2022/09/19 03:54:03;;;;;;;5.60;1.95;;;;;;;14.51;44.60;99643.69;5109050;28;20112;-45
2022/09/19 03:56:29;;;;;;;5.85;2.17;;;;;;;14.78;49.18;99654.81;5109481;28;20472;-42
2022/09/19 03:58:54;;;;;;;4.93;1.88;;;;;;;14.95;43.27;99649.59;5109399;28;20107;-43
2022/09/19 04:01:21;;;;;;;6.20;2.00;;;;;;;14.94;44.26;99653.28;5109374;28;20532;-43
2022/09/19 04:03:46;;;;;;;5.85;2.30;;;;;;;14.89;44.52;99661.22;5109236;28;20031;-44
2022/09/19 04:06:12;;;;;;;4.00;2.05;;;;;;;14.63;45.03;99657.97;5109607;28;20119;-45
2022/09/19 04:08:38;;;;;;;6.47;2.45;;;;;;;14.54;45.10;99659.31;5109539;28;20023;-43
2022/09/19 04:11:04;;;;;;;14.75;3.35;;;;;;;17.09;53.39;99667.13;5109585;28;20024;-44
2022/09/19 04:13:31;;;;;;;11.10;3.13;;;;;;;18.84;46.52;99656.25;5108911;28;20023;-44
2022/09/19 04:15:57;;;;;;;12.10;6.15;;;;;;;19.69;39.25;99664.22;5108426;28;20023;-43
2022/09/19 04:18:22;;;;;;;23.45;14.27;;;;;;;19.61;36.21;99662.00;5108681;28;20127;-43
2022/09/19 04:20:51;;;;;;;10.57;5.93;;;;;;;19.09;36.86;99659.09;5109143;28;20032;-45
2022/09/19 04:23:17;;;;;;;8.30;2.58;;;;;;;18.56;36.93;99668.97;5109181;28;20026;-42
2022/09/19 04:25:44;;;;;;;9.10;3.25;;;;;;;17.97;41.16;99667.94;5108680;28;20447;-42
2022/09/19 04:28:11;;;;;;;5.95;2.70;;;;;;;17.75;41.22;99661.75;5107676;28;20110;-42
2022/09/19 04:30:40;;;;;;;8.38;2.80;;;;;;;17.96;40.03;99662.78;5095885;28;20042;-44
2022/09/19 04:33:11;;;;;;;12.77;3.15;;;;;;;17.96;39.32;99668.19;5101620;28;20452;-42
2022/09/19 04:35:37;;;;;;;14.85;3.08;;;;;;;18.01;38.91;99657.47;5109115;28;20050;-42
2022/09/19 04:38:11;;;;;;;12.93;3.53;;;;;;;18.04;39.67;99658.81;5110830;28;20506;-44
2022/09/19 04:40:42;;;;;;;7.38;3.28;;;;;;;18.12;38.17;99661.06;5112768;28;20137;-43
2022/09/19 04:43:09;;;;;;;9.88;3.10;;;;;;;18.15;38.92;99671.31;5112184;28;20019;-42
2022/09/19 04:45:36;;;;;;;6.30;2.78;;;;;;;18.17;38.86;99655.72;5112258;28;20038;-43
2022/09/19 04:48:05;;;;;;;11.55;2.90;;;;;;;18.44;38.40;99660.25;5111466;28;20027;-44
2022/09/19 04:50:34;;;;;;;8.52;3.15;;;;;;;18.23;38.69;99638.53;5110633;28;20024;-41
2022/09/19 04:53:00;;;;;;;8.88;2.50;;;;;;;18.25;37.63;99663.31;5111056;28;20032;-43
2022/09/19 04:55:27;;;;;;;8.15;2.28;;;;;;;18.27;37.38;99665.78;5111712;28;20027;-44
2022/09/19 04:57:54;;;;;;;6.38;2.30;;;;;;;17.97;37.86;99659.03;5110424;28;20023;-42
2022/09/19 05:00:38;;;;;;;6.68;2.47;;;;;;;18.34;36.85;99661.78;5112114;28;20679;-41
2022/09/19 05:03:09;;;;;;;8.57;2.40;;;;;;;18.78;36.75;99663.47;5111815;28;20103;-42
2022/09/19 05:05:36;;;;;;;8.35;2.95;;;;;;;18.81;36.33;99667.56;5112363;28;20049;-43
2022/09/19 05:08:04;;;;;;;5.13;3.30;;;;;;;18.77;36.76;99669.91;5112292;28;20167;-42
2022/09/19 05:10:32;;;;;;;7.57;3.10;;;;;;;18.54;37.17;99676.50;5112076;28;20024;-42
2022/09/19 05:12:59;;;;;;;10.95;3.78;;;;;;;18.57;37.40;99681.38;5111984;28;20442;-42
2022/09/19 05:15:25;;;;;;;4.45;2.80;;;;;;;18.72;36.94;99680.69;5111449;28;20023;-41
2022/09/19 05:17:53;;;;;;;16.63;4.97;;;;;;;18.70;37.95;99680.94;5109967;28;20039;-42
2022/09/19 05:20:20;;;;;;;9.30;4.13;;;;;;;18.40;37.39;99675.31;5111369;28;20027;-41
2022/09/19 05:22:45;;;;;;;9.95;5.03;;;;;;;19.04;36.20;99669.03;5111538;28;20023;-41
2022/09/19 05:25:11;;;;;;;9.00;2.90;;;;;;;19.71;35.67;99670.97;5111452;28;20034;-41
2022/09/19 05:27:38;;;;;;;11.57;5.22;;;;;;;20.27;34.58;99677.56;5111511;27;20156;-41
2022/09/19 05:30:04;;;;;;;6.38;3.22;;;;;;;20.67;33.71;99674.06;5111029;28;20424;-42
2022/09/19 05:32:29;;;;;;;4.40;3.10;;;;;;;20.66;33.90;99661.66;5111539;28;20020;-40
2022/09/19 05:34:59;;;;;;;3.95;2.50;;;;;;;21.16;32.69;99677.25;5111682;28;20048;-41
2022/09/19 05:37:25;;;;;;;7.00;2.35;;;;;;;21.18;32.50;99678.56;5111707;28;20030;-43
2022/09/19 05:39:50;;;;;;;5.70;2.60;;;;;;;20.98;33.01;99684.88;5110859;28;20449;-43
2022/09/19 05:42:15;;;;;;;5.13;2.65;;;;;;;21.39;33.58;99681.22;5111069;28;20029;-42
2022/09/19 05:44:41;;;;;;;4.63;2.67;;;;;;;21.36;33.30;99679.06;5111144;28;20043;-43
2022/09/19 05:47:06;;;;;;;7.00;2.60;;;;;;;21.27;32.59;99676.13;5110949;28;20039;-42
2022/09/19 05:49:32;;;;;;;7.28;2.58;;;;;;;21.34;32.58;99686.66;5110926;28;20022;-44
2022/09/19 05:53:51;;;;;;;5.22;2.63;;;;;;;21.41;32.78;99692.59;5111156;28;20502;-43
2022/09/19 05:54:43;;;;;;;8.35;2.80;;;;;;;21.60;32.55;99698.22;5110823;28;20034;-42
2022/09/19 05:57:09;;;;;;;5.63;2.85;;;;;;;22.17;32.68;99693.31;5111068;28;20023;-44
2022/09/19 05:59:35;;;;;;;6.28;3.00;;;;;;;22.83;31.02;99691.97;5111066;28;20471;-44
2022/09/19 06:02:01;;;;;;;6.40;2.60;;;;;;;23.01;30.03;99691.25;5111031;27;20026;-42
2022/09/19 06:04:26;;;;;;;6.72;2.75;;;;;;;22.43;31.00;99694.75;5111124;28;20115;-42
2022/09/19 06:06:52;;;;;;;9.55;3.65;;;;;;;22.42;30.91;99692.31;5110937;28;20031;-43
2022/09/19 06:09:17;;;;;;;10.07;4.78;;;;;;;22.52;31.07;99691.44;5110914;28;20026;-41
2022/09/19 06:11:43;;;;;;;10.35;2.50;;;;;;;22.70;30.72;99690.75;5110345;28;20425;-43
2022/09/19 06:14:14;;;;;;;5.03;1.95;;;;;;;22.91;30.27;99680.50;5110449;28;20115;-44
2022/09/19 06:16:41;;;;;;;7.75;2.97;;;;;;;23.13;29.86;99696.31;5110067;28;20019;-42
2022/09/19 06:19:08;;;;;;;4.60;1.90;;;;;;;22.16;30.94;99702.50;5110027;28;20351;-41
2022/09/19 06:21:33;;;;;;;7.50;3.60;;;;;;;22.16;31.18;99699.78;5110366;28;20448;-44
2022/09/19 06:23:59;;;;;;;10.13;3.95;;;;;;;23.19;30.52;99697.09;5109876;28;20035;-41
2022/09/19 06:26:26;;;;;;;7.78;2.90;;;;;;;22.87;30.14;99701.16;5109956;28;20551;-43
2022/09/19 06:28:51;;;;;;;7.00;3.40;;;;;;;24.17;28.95;99704.78;5108915;28;20282;-43
2022/09/19 06:31:18;;;;;;;9.02;4.10;;;;;;;23.65;29.10;99695.72;5110410;28;20096;-43
2022/09/19 06:33:43;;;;;;;5.97;2.97;;;;;;;24.34;28.47;99702.34;5109884;28;20043;-43
2022/09/19 06:36:10;;;;;;;4.97;2.60;;;;;;;24.60;27.05;99701.97;5102842;28;20080;-42
2022/09/19 06:38:36;;;;;;;7.57;4.43;;;;;;;24.38;28.24;99708.00;5096338;28;20032;-43
2022/09/19 06:41:06;;;;;;;4.70;2.80;;;;;;;25.41;26.91;99712.47;5102907;28;20080;-44
2022/09/19 06:43:31;;;;;;;8.43;3.22;;;;;;;25.97;25.88;99705.09;5093270;28;20028;-44
2022/09/19 06:45:57;;;;;;;6.63;2.42;;;;;;;25.37;27.45;99700.59;5090221;28;20179;-46
2022/09/19 06:48:23;;;;;;;4.35;2.40;;;;;;;26.09;26.41;99704.53;5089909;28;20028;-46
2022/09/19 06:50:49;;;;;;;4.57;2.15;;;;;;;25.57;27.21;99707.56;5089744;28;20107;-44
2022/09/19 06:53:15;;;;;;;5.30;2.42;;;;;;;25.85;27.32;99705.56;5089283;28;20020;-44
2022/09/19 06:55:41;;;;;;;7.07;2.35;;;;;;;26.71;26.33;99701.97;5089139;28;20034;-45
2022/09/19 06:58:08;;;;;;;6.53;2.00;;;;;;;27.05;25.84;99705.19;5087289;28;20043;-45
2022/09/19 07:00:38;;;;;;;7.05;2.15;;;;;;;27.40;25.00;99699.91;5088757;28;20411;-46
2022/09/19 07:03:08;;;;;;;5.97;2.53;;;;;;;27.58;24.31;99704.25;5107524;28;20028;-46
2022/09/19 07:05:36;;;;;;;5.50;2.20;;;;;;;27.61;25.00;99694.63;5110017;28;20085;-46
2022/09/19 07:08:02;;;;;;;6.65;2.35;;;;;;;27.20;24.49;99699.28;5110240;28;20025;-46
2022/09/19 07:10:28;;;;;;;8.43;2.90;;;;;;;26.79;24.87;99702.31;5109875;28;20020;-43
2022/09/19 07:13:01;;;;;;;7.05;2.33;;;;;;;26.79;25.19;99694.94;5110018;28;20039;-44
2022/09/19 07:15:26;;;;;;;9.32;2.67;;;;;;;27.06;25.36;99687.69;5109233;28;20043;-43
2022/09/19 07:17:55;;;;;;;9.07;2.45;;;;;;;26.58;25.48;99699.25;5109184;28;20067;-46
2022/09/19 07:20:23;;;;;;;6.03;2.47;;;;;;;26.93;25.17;99689.38;5109263;28;20023;-43
2022/09/19 07:23:00;;;;;;;7.90;2.70;;;;;;;27.02;25.64;99692.16;5109302;28;20058;-43
2022/09/19 07:25:27;;;;;;;7.22;2.80;;;;;;;27.56;24.92;99686.59;5109281;28;20023;-46
2022/09/19 07:28:01;;;;;;;4.80;2.55;;;;;;;27.73;24.25;99691.28;5109414;28;20077;-45
2022/09/19 07:30:27;;;;;;;4.50;2.22;;;;;;;27.61;25.13;99684.50;5109661;28;20032;-45
2022/09/19 07:32:58;;;;;;;9.48;2.72;;;;;;;27.32;25.17;99684.25;5109263;28;20335;-44
2022/09/19 07:35:28;;;;;;;5.63;2.60;;;;;;;27.52;24.48;99680.94;5109372;28;20058;-43
2022/09/19 07:37:57;;;;;;;5.68;2.15;;;;;;;28.35;24.33;99681.97;5109299;28;20094;-43
2022/09/19 07:40:23;;;;;;;7.60;3.97;;;;;;;27.41;24.16;99688.63;5109416;28;20053;-44
2022/09/19 07:42:50;;;;;;;5.55;2.72;;;;;;;28.03;24.08;99684.91;5109405;28;20400;-42
2022/09/19 07:45:17;;;;;;;5.35;2.40;;;;;;;28.59;23.31;99684.22;5109163;28;20030;-43
2022/09/19 07:47:47;;;;;;;7.60;2.70;;;;;;;28.93;23.30;99680.56;5108948;28;20028;-43
2022/09/19 07:50:16;;;;;;;8.82;2.50;;;;;;;29.10;23.09;99679.69;5108799;28;20031;-43
2022/09/19 07:52:48;;;;;;;5.55;2.30;;;;;;;29.18;23.08;99672.59;5108924;28;20466;-43
2022/09/19 07:55:14;;;;;;;6.90;2.55;;;;;;;29.26;22.03;99668.22;5108804;28;20424;-44
2022/09/19 07:57:50;;;;;;;4.43;1.92;;;;;;;29.69;21.81;99675.38;5108840;28;20027;-42
2022/09/19 08:00:16;;;;;;;6.15;2.50;;;;;;;29.75;21.85;99665.84;5108690;28;20424;-43
2022/09/19 08:02:42;;;;;;;5.72;2.70;;;;;;;29.36;22.60;99671.38;5107633;28;20028;-44
2022/09/19 08:05:08;;;;;;;5.70;2.30;;;;;;;29.82;21.09;99679.81;5109125;28;20024;-43
2022/09/19 08:07:33;;;;;;;5.40;2.30;;;;;;;30.04;21.43;99666.91;5109246;28;20085;-43
2022/09/19 08:09:59;;;;;;;5.68;2.53;;;;;;;29.38;22.45;99669.13;5108868;28;20235;-42
2022/09/19 08:12:25;;;;;;;5.22;2.50;;;;;;;29.75;22.65;99657.59;5110945;28;20031;-41
2022/09/19 08:14:50;;;;;;;7.47;2.40;;;;;;;29.23;22.16;99654.03;5113353;28;20020;-45
2022/09/19 08:17:16;;;;;;;4.20;2.45;;;;;;;29.75;21.91;99646.63;5112573;28;20173;-44
2022/09/19 08:19:43;;;;;;;4.50;2.55;;;;;;;29.45;21.42;99649.38;5112622;28;20093;-44
2022/09/19 08:22:08;;;;;;;5.28;2.55;;;;;;;28.72;21.83;99650.38;5112623;28;20024;-43
2022/09/19 08:24:33;;;;;;;5.90;2.22;;;;;;;28.48;22.72;99639.94;5112676;28;20042;-46
2022/09/19 08:26:59;;;;;;;7.78;2.50;;;;;;;28.04;22.55;99636.47;5112499;28;20099;-44
2022/09/19 08:29:26;;;;;;;4.20;2.17;;;;;;;27.68;22.83;99632.09;5112418;28;20499;-44
2022/09/19 08:31:52;;;;;;;5.85;2.38;;;;;;;27.04;23.45;99630.66;5112399;27;20023;-46
2022/09/19 08:34:17;;;;;;;5.18;2.38;;;;;;;26.45;24.40;99630.03;5112562;28;20344;-42
2022/09/19 08:36:43;;;;;;;4.85;2.20;;;;;;;26.38;24.35;99625.00;5112606;28;20409;-43
2022/09/19 08:39:08;;;;;;;4.22;2.22;;;;;;;26.63;24.01;99625.50;5112541;28;20440;-43
2022/09/19 08:41:49;;;;;;;4.85;2.00;;;;;;;25.48;24.93;99627.66;5112440;28;20024;-43
2022/09/19 08:44:38;;;;;;;3.92;2.00;;;;;;;25.74;24.63;99615.06;5112233;28;20122;-42
2022/09/19 08:47:12;;;;;;;4.72;1.88;;;;;;;27.03;24.03;99618.09;5111443;28;20035;-45
2022/09/19 08:49:45;;;;;;;6.88;1.92;;;;;;;27.71;23.36;99619.72;5112092;28;20019;-46
2022/09/19 08:52:30;;;;;;;3.53;1.90;;;;;;;28.52;22.51;99615.47;5111461;28;20030;-42
2022/09/19 08:54:57;;;;;;;3.17;1.83;;;;;;;28.15;21.59;99609.59;5111757;28;20015;-46
2022/09/19 08:57:33;;;;;;;3.72;1.70;;;;;;;28.06;22.06;99602.22;5111685;28;20024;-45
2022/09/19 09:00:07;;;;;;;2.95;1.88;;;;;;;28.56;23.24;99605.47;5110628;28;20076;-44
2022/09/19 09:02:46;;;;;;;3.40;1.58;;;;;;;28.92;23.60;99599.56;5111709;28;20099;-43
2022/09/19 09:05:23;;;;;;;3.20;1.53;;;;;;;27.72;23.62;99597.53;5111912;28;20023;-45
2022/09/19 09:08:24;;;;;;;2.53;1.30;;;;;;;26.29;24.33;99591.41;5112131;28;20386;-43
2022/09/19 09:10:58;;;;;;;4.80;1.33;;;;;;;26.23;24.63;99595.41;5111632;28;20054;-45
2022/09/19 09:13:36;;;;;;;2.90;1.63;;;;;;;26.55;24.13;99583.38;5111547;28;20096;-44
2022/09/19 09:16:10;;;;;;;3.00;1.50;;;;;;;26.43;24.01;99578.53;5111070;28;20028;-46
2022/09/19 09:18:58;;;;;;;1.20;1.10;;;;;;;26.01;24.06;99575.22;5110980;28;20066;-44
2022/09/19 09:21:46;;;;;;;1.95;1.38;;;;;;;25.21;24.67;99569.38;5111042;28;20035;-43
2022/09/19 09:24:21;;;;;;;2.78;1.50;;;;;;;25.40;24.79;99568.44;5110270;28;20415;-44
2022/09/19 09:26:51;;;;;;;2.83;1.48;;;;;;;25.27;24.37;99570.09;5111286;28;20031;-42
2022/09/19 09:29:43;;;;;;;3.78;1.48;;;;;;;25.10;24.68;99557.88;5110747;28;20069;-43
2022/09/19 09:32:40;;;;;;;3.25;1.50;;;;;;;25.78;24.42;99563.50;5110958;28;20024;-42
2022/09/19 09:35:12;;;;;;;1.98;0.90;;;;;;;26.00;22.71;99549.06;5102174;28;20027;-45
2022/09/19 09:37:47;;;;;;;2.70;1.20;;;;;;;25.00;24.50;99544.50;5111407;28;20027;-44
2022/09/19 09:43:08;;;;;;;3.35;1.20;;;;;;;26.00;24.64;99542.81;5111582;28;20178;-45
2022/09/19 09:45:51;;;;;;;3.42;1.20;;;;;;;26.87;22.85;99526.88;5110573;28;20525;-45
2022/09/19 09:48:29;;;;;;;1.30;1.08;;;;;;;27.32;20.27;99539.50;5110847;28;20020;-45
2022/09/19 09:51:32;;;;;;;1.95;1.58;;;;;;;27.44;20.54;99531.47;5110930;28;20034;-45
2022/09/19 09:54:02;;;;;;;1.98;0.85;;;;;;;27.95;20.47;99529.03;5110477;28;20104;-45
2022/09/19 09:56:39;;;;;;;1.65;0.90;;;;;;;28.07;20.46;99531.91;5110519;28;20487;-44
2022/09/19 10:05:16;;;;;;;1.42;0.77;;;;;;;27.08;21.19;99524.34;5110927;28;20038;-43
2022/09/19 10:07:58;;;;;;;1.13;0.70;;;;;;;27.24;19.87;99511.81;5110744;28;20027;-46
2022/09/19 10:10:25;;;;;;;3.70;0.60;;;;;;;27.85;20.11;99511.00;5110562;28;20027;-44
2022/09/19 10:12:55;;;;;;;1.00;0.52;;;;;;;27.95;18.77;99502.50;5110562;28;20050;-42
2022/09/19 10:15:24;;;;;;;1.25;0.75;;;;;;;27.78;19.52;99499.75;5110417;28;20020;-43
2022/09/19 10:17:58;;;;;;;1.73;0.82;;;;;;;27.47;19.82;99492.56;5109593;28;20399;-42
2022/09/19 10:20:38;;;;;;;1.35;0.80;;;;;;;27.91;20.79;99496.06;5109854;28;20459;-43
2022/09/19 10:23:08;;;;;;;1.58;0.82;;;;;;;28.20;20.71;99491.81;5109713;28;20050;-44
2022/09/19 10:25:33;;;;;;;2.65;0.80;;;;;;;27.86;20.40;99493.47;5109778;28;20028;-46
2022/09/19 10:28:16;;;;;;;3.97;0.95;;;;;;;27.88;20.73;99486.59;5109401;28;20080;-41
2022/09/19 10:30:53;;;;;;;0.98;0.80;;;;;;;27.24;20.09;99487.22;5110371;28;20023;-43
2022/09/19 10:33:38;;;;;;;1.25;0.98;;;;;;;26.72;19.44;99474.31;5109745;28;20039;-43
2022/09/19 10:36:08;;;;;;;2.00;0.70;;;;;;;26.95;19.13;99481.59;5109036;28;20024;-44
2022/09/19 10:38:58;;;;;;;1.27;0.80;;;;;;;25.64;20.51;99467.38;5109843;28;20406;-46
2022/09/19 10:41:26;;;;;;;0.70;0.70;;;;;;;26.10;20.80;99468.94;5110208;28;20486;-42
2022/09/19 10:44:00;;;;;;;0.80;0.70;;;;;;;26.23;19.98;99459.84;5109889;28;20447;-44
2022/09/19 10:46:56;;;;;;;1.15;0.73;;;;;;;26.33;21.05;99461.50;5109319;28;20434;-46
2022/09/19 10:49:28;;;;;;;0.98;0.57;;;;;;;26.94;19.79;99464.41;5092507;27;20035;-47
2022/09/19 10:51:56;;;;;;;1.08;0.70;;;;;;;27.46;18.90;99467.19;5109674;28;20053;-45
2022/09/19 10:54:31;;;;;;;3.37;0.97;;;;;;;27.63;19.03;99465.56;5109568;28;20146;-45
2022/09/19 10:56:58;;;;;;;1.52;0.80;;;;;;;27.76;20.39;99461.84;5109739;28;20034;-45
2022/09/19 10:59:36;;;;;;;1.98;0.63;;;;;;;26.67;20.16;99458.13;5109767;28;20054;-46
2022/09/19 11:02:27;;;;;;;0.70;0.70;;;;;;;25.48;21.26;99456.06;5110033;28;20016;-43
2022/09/19 11:05:09;;;;;;;0.90;0.77;;;;;;;25.74;22.42;99446.13;5108770;28;20023;-44
2022/09/19 11:08:02;;;;;;;0.70;0.60;;;;;;;25.85;20.88;99440.41;5109137;28;20027;-42
2022/09/19 11:10:33;;;;;;;2.13;1.02;;;;;;;26.42;21.16;99431.53;5106827;28;20032;-44
2022/09/19 11:13:16;;;;;;;1.42;0.55;;;;;;;26.09;21.56;99434.63;5109823;28;20028;-44
2022/09/19 11:15:57;;;;;;;0.63;0.63;;;;;;;25.32;22.31;99426.47;5110094;28;20026;-46
2022/09/19 11:18:39;;;;;;;1.02;0.70;;;;;;;25.09;21.87;99425.63;5108638;28;20055;-45
2022/09/19 11:21:26;;;;;;;0.60;0.52;;;;;;;25.64;21.62;99412.88;5109238;28;20035;-44
2022/09/19 11:24:17;;;;;;;0.70;0.70;;;;;;;26.80;22.10;99420.06;5108801;28;20123;-45
2022/09/19 11:27:00;;;;;;;2.90;0.90;;;;;;;27.47;22.14;99425.09;5101094;28;20462;-45
2022/09/19 11:29:51;;;;;;;0.65;0.60;;;;;;;27.80;20.93;99416.31;5109624;28;20027;-42
2022/09/19 11:32:53;;;;;;;0.85;0.80;;;;;;;26.27;21.60;99414.50;5108611;28;20038;-45
2022/09/19 11:35:53;;;;;;;2.92;0.80;;;;;;;25.47;22.52;99403.47;5109478;28;20028;-43
2022/09/19 11:38:53;;;;;;;0.90;0.80;;;;;;;25.23;23.03;99411.19;5109405;28;20023;-44
2022/09/19 11:41:27;;;;;;;0.55;0.50;;;;;;;26.26;21.84;99401.16;5109350;28;20092;-37
2022/09/19 11:43:59;;;;;;;1.02;0.70;;;;;;;27.30;22.05;99392.31;5109407;28;20134;-37
2022/09/19 11:46:49;;;;;;;1.40;0.60;;;;;;;27.32;20.80;99390.03;5107244;28;20023;-37
2022/09/19 11:49:51;;;;;;;1.95;0.90;;;;;;;26.83;21.63;99392.16;5112802;28;20023;-37
2022/09/19 11:52:43;;;;;;;2.38;0.90;;;;;;;27.05;20.90;99391.19;5112440;28;20028;-37
2022/09/19 11:55:27;;;;;;;2.30;0.90;;;;;;;26.98;21.26;99378.03;5111303;28;20027;-37
2022/09/19 11:57:58;;;;;;;1.63;0.73;;;;;;;26.87;21.19;99380.25;5112211;28;20769;-37
2022/09/19 12:00:25;;;;;;;0.80;0.80;;;;;;;27.14;21.19;99375.59;5110791;28;20024;-37
2022/09/19 12:03:10;;;;;;;1.50;0.60;;;;;;;27.88;20.85;99381.88;5113379;28;20114;-37
2022/09/19 12:05:58;;;;;;;3.08;1.40;;;;;;;27.39;21.06;99371.25;5112356;28;20448;-37
2022/09/19 12:08:54;;;;;;;2.50;0.80;;;;;;;26.68;21.56;99368.88;5094002;28;20173;-37
2022/09/19 12:11:55;;;;;;;0.55;0.50;;;;;;;26.63;21.63;99363.56;5093911;28;20020;-37